sensor_id;sensor_type;location;lat;lon;timestamp;temperature;humidity
61374;DHT22;47242;48.158;-1.586;2022-12-16T05:32:13;1.70;74.10
61374;DHT22;47242;48.158;-1.586;2022-12-16T05:34:59;1.70;73.90
61374;DHT22;47242;48.158;-1.586;2022-12-16T05:37:44;1.70;74.00
61374;DHT22;47242;48.158;-1.586;2022-12-16T05:40:28;1.70;74.00
61374;DHT22;47242;48.158;-1.586;2022-12-16T05:43:12;1.70;73.90
61374;DHT22;47242;48.158;-1.586;2022-12-16T05:45:56;1.60;73.90
61374;DHT22;47242;48.158;-1.586;2022-12-16T05:48:40;1.60;74.10
61374;DHT22;47242;48.158;-1.586;2022-12-16T05:51:24;1.60;74.20
61374;DHT22;47242;48.158;-1.586;2022-12-16T05:54:08;1.60;74.20
61374;DHT22;47242;48.158;-1.586;2022-12-16T05:56:52;1.60;74.20
61374;DHT22;47242;48.158;-1.586;2022-12-16T05:59:37;1.60;74.40
61374;DHT22;47242;48.158;-1.586;2022-12-16T06:02:21;1.60;74.40
61374;DHT22;47242;48.158;-1.586;2022-12-16T06:05:05;1.60;74.40
61374;DHT22;47242;48.158;-1.586;2022-12-16T06:07:50;1.50;74.70
61374;DHT22;47242;48.158;-1.586;2022-12-16T06:10:35;1.60;74.60
61374;DHT22;47242;48.158;-1.586;2022-12-16T06:13:19;1.50;74.70
61374;DHT22;47242;48.158;-1.586;2022-12-16T06:16:03;1.50;74.70
61374;DHT22;47242;48.158;-1.586;2022-12-16T06:18:47;1.50;74.60
61374;DHT22;47242;48.158;-1.586;2022-12-16T06:21:31;1.50;74.60
61374;DHT22;47242;48.158;-1.586;2022-12-16T06:24:16;1.50;74.80
61374;DHT22;47242;48.158;-1.586;2022-12-16T06:27:00;1.50;74.70
61374;DHT22;47242;48.158;-1.586;2022-12-16T06:29:44;1.40;74.80
61374;DHT22;47242;48.158;-1.586;2022-12-16T06:32:28;1.40;74.80
61374;DHT22;47242;48.158;-1.586;2022-12-16T06:35:12;1.40;74.60
61374;DHT22;47242;48.158;-1.586;2022-12-16T06:37:56;1.40;74.70
61374;DHT22;47242;48.158;-1.586;2022-12-16T06:40:40;1.40;74.60
61374;DHT22;47242;48.158;-1.586;2022-12-16T06:43:24;1.30;74.80
61374;DHT22;47242;48.158;-1.586;2022-12-16T06:46:08;1.40;74.80
61374;DHT22;47242;48.158;-1.586;2022-12-16T06:48:53;1.50;74.60
61374;DHT22;47242;48.158;-1.586;2022-12-16T06:51:39;1.50;74.30
61374;DHT22;47242;48.158;-1.586;2022-12-16T06:54:23;1.50;74.20
61374;DHT22;47242;48.158;-1.586;2022-12-16T06:57:07;1.50;74.20
61374;DHT22;47242;48.158;-1.586;2022-12-16T06:59:56;1.40;74.50
61374;DHT22;47242;48.158;-1.586;2022-12-16T07:02:41;1.40;74.60
61374;DHT22;47242;48.158;-1.586;2022-12-16T07:05:25;1.40;74.80
61374;DHT22;47242;48.158;-1.586;2022-12-16T07:08:09;1.40;75.10
61374;DHT22;47242;48.158;-1.586;2022-12-16T07:10:53;1.40;75.10
61374;DHT22;47242;48.158;-1.586;2022-12-16T07:13:40;1.40;74.90
61374;DHT22;47242;48.158;-1.586;2022-12-16T07:16:24;1.50;74.90
61374;DHT22;47242;48.158;-1.586;2022-12-16T07:19:08;1.50;75.00
61374;DHT22;47242;48.158;-1.586;2022-12-16T07:21:52;1.50;75.10
61374;DHT22;47242;48.158;-1.586;2022-12-16T07:24:36;1.50;75.50
61374;DHT22;47242;48.158;-1.586;2022-12-16T07:27:21;1.50;75.40
61374;DHT22;47242;48.158;-1.586;2022-12-16T07:30:05;1.50;75.30
61374;DHT22;47242;48.158;-1.586;2022-12-16T07:32:49;1.50;75.50
61374;DHT22;47242;48.158;-1.586;2022-12-16T07:35:33;1.50;75.40
61374;DHT22;47242;48.158;-1.586;2022-12-16T07:38:17;1.50;75.60
61374;DHT22;47242;48.158;-1.586;2022-12-16T07:41:01;1.60;75.70
61374;DHT22;47242;48.158;-1.586;2022-12-16T07:43:46;1.60;75.70
61374;DHT22;47242;48.158;-1.586;2022-12-16T07:46:30;1.60;75.40
61374;DHT22;47242;48.158;-1.586;2022-12-16T07:49:14;1.60;75.50
61374;DHT22;47242;48.158;-1.586;2022-12-16T07:51:58;1.60;75.60
61374;DHT22;47242;48.158;-1.586;2022-12-16T07:54:42;1.60;75.70
61374;DHT22;47242;48.158;-1.586;2022-12-16T07:57:26;1.60;75.80
61374;DHT22;47242;48.158;-1.586;2022-12-16T08:00:10;1.60;75.80
61374;DHT22;47242;48.158;-1.586;2022-12-16T08:02:55;1.60;75.70
61374;DHT22;47242;48.158;-1.586;2022-12-16T08:05:39;1.60;75.90
61374;DHT22;47242;48.158;-1.586;2022-12-16T08:08:23;1.70;76.10
61374;DHT22;47242;48.158;-1.586;2022-12-16T08:11:07;1.70;75.90
61374;DHT22;47242;48.158;-1.586;2022-12-16T08:13:52;1.70;76.00
61374;DHT22;47242;48.158;-1.586;2022-12-16T08:16:36;1.70;75.80
61374;DHT22;47242;48.158;-1.586;2022-12-16T08:19:20;1.80;75.70
61374;DHT22;47242;48.158;-1.586;2022-12-16T08:22:04;1.80;75.70
61374;DHT22;47242;48.158;-1.586;2022-12-16T08:24:48;1.80;75.60
61374;DHT22;47242;48.158;-1.586;2022-12-16T08:27:32;1.80;75.30
61374;DHT22;47242;48.158;-1.586;2022-12-16T08:30:36;1.80;75.30
61374;DHT22;47242;48.158;-1.586;2022-12-16T08:33:20;1.80;75.70
61374;DHT22;47242;48.158;-1.586;2022-12-16T08:36:05;1.90;75.70
61374;DHT22;47242;48.158;-1.586;2022-12-16T08:38:49;1.90;75.80
61374;DHT22;47242;48.158;-1.586;2022-12-16T08:41:33;2.00;75.70
61374;DHT22;47242;48.158;-1.586;2022-12-16T08:44:17;2.00;75.70
61374;DHT22;47242;48.158;-1.586;2022-12-16T08:47:01;2.10;75.50
61374;DHT22;47242;48.158;-1.586;2022-12-16T08:49:46;2.00;75.70
61374;DHT22;47242;48.158;-1.586;2022-12-16T08:52:31;2.00;75.60
61374;DHT22;47242;48.158;-1.586;2022-12-16T08:55:15;2.10;75.70
61374;DHT22;47242;48.158;-1.586;2022-12-16T08:57:59;2.10;75.60
61374;DHT22;47242;48.158;-1.586;2022-12-16T09:00:43;2.10;75.70
61374;DHT22;47242;48.158;-1.586;2022-12-16T09:03:27;2.10;76.20
61374;DHT22;47242;48.158;-1.586;2022-12-16T09:06:11;2.10;76.40
61374;DHT22;47242;48.158;-1.586;2022-12-16T09:08:55;2.20;76.50
61374;DHT22;47242;48.158;-1.586;2022-12-16T09:11:39;2.20;76.80
61374;DHT22;47242;48.158;-1.586;2022-12-16T09:14:23;2.20;76.70
61374;DHT22;47242;48.158;-1.586;2022-12-16T09:17:07;2.30;76.80
61374;DHT22;47242;48.158;-1.586;2022-12-16T09:20:05;2.30;76.50
61374;DHT22;47242;48.158;-1.586;2022-12-16T09:22:50;2.40;76.60
61374;DHT22;47242;48.158;-1.586;2022-12-16T09:25:34;2.50;76.60
61374;DHT22;47242;48.158;-1.586;2022-12-16T09:28:18;2.50;76.50
61374;DHT22;47242;48.158;-1.586;2022-12-16T09:31:02;2.50;76.40
61374;DHT22;47242;48.158;-1.586;2022-12-16T09:33:46;2.50;76.70
61374;DHT22;47242;48.158;-1.586;2022-12-16T09:36:31;2.50;76.60
61374;DHT22;47242;48.158;-1.586;2022-12-16T09:39:15;2.60;76.70
61374;DHT22;47242;48.158;-1.586;2022-12-16T09:42:05;2.70;76.60
61374;DHT22;47242;48.158;-1.586;2022-12-16T09:48:12;2.80;76.40
61374;DHT22;47242;48.158;-1.586;2022-12-16T09:51:01;2.80;76.30
61374;DHT22;47242;48.158;-1.586;2022-12-16T09:53:49;2.90;76.30
61374;DHT22;47242;48.158;-1.586;2022-12-16T09:56:35;3.00;76.30
61374;DHT22;47242;48.158;-1.586;2022-12-16T09:59:40;3.00;76.30
61374;DHT22;47242;48.158;-1.586;2022-12-16T10:02:25;3.10;76.20
61374;DHT22;47242;48.158;-1.586;2022-12-16T10:05:12;3.10;76.30
61374;DHT22;47242;48.158;-1.586;2022-12-16T10:08:09;3.10;76.60
61374;DHT22;47242;48.158;-1.586;2022-12-16T10:11:08;3.20;76.50
61374;DHT22;47242;48.158;-1.586;2022-12-16T10:14:03;3.20;76.50
61374;DHT22;47242;48.158;-1.586;2022-12-16T10:17:14;3.20;76.50
61374;DHT22;47242;48.158;-1.586;2022-12-16T10:20:16;3.30;76.60
61374;DHT22;47242;48.158;-1.586;2022-12-16T10:29:17;3.50;76.40
61374;DHT22;47242;48.158;-1.586;2022-12-16T10:32:13;3.60;76.50
61374;DHT22;47242;48.158;-1.586;2022-12-16T10:34:58;3.60;76.50
61374;DHT22;47242;48.158;-1.586;2022-12-16T10:37:43;3.70;76.50
61374;DHT22;47242;48.158;-1.586;2022-12-16T10:40:29;3.80;76.50
61374;DHT22;47242;48.158;-1.586;2022-12-16T10:43:47;3.80;76.70
61374;DHT22;47242;48.158;-1.586;2022-12-16T10:46:34;3.90;76.60
61374;DHT22;47242;48.158;-1.586;2022-12-16T10:49:19;4.00;76.60
61374;DHT22;47242;48.158;-1.586;2022-12-16T10:52:04;4.00;76.70
61374;DHT22;47242;48.158;-1.586;2022-12-16T10:55:44;4.00;76.70
61374;DHT22;47242;48.158;-1.586;2022-12-16T11:01:21;4.20;76.70
61374;DHT22;47242;48.158;-1.586;2022-12-16T11:07:34;4.30;76.40
61374;DHT22;47242;48.158;-1.586;2022-12-16T11:13:28;4.40;76.70
61374;DHT22;47242;48.158;-1.586;2022-12-16T11:16:22;4.60;76.70
61374;DHT22;47242;48.158;-1.586;2022-12-16T11:19:23;4.60;76.60
61374;DHT22;47242;48.158;-1.586;2022-12-16T11:22:15;4.70;76.60
61374;DHT22;47242;48.158;-1.586;2022-12-16T11:25:05;4.70;76.50
61374;DHT22;47242;48.158;-1.586;2022-12-16T11:27:50;4.80;76.40
61374;DHT22;47242;48.158;-1.586;2022-12-16T11:30:51;4.80;76.40
61374;DHT22;47242;48.158;-1.586;2022-12-16T11:33:37;4.80;76.30
61374;DHT22;47242;48.158;-1.586;2022-12-16T11:36:23;4.90;76.20
61374;DHT22;47242;48.158;-1.586;2022-12-16T11:39:17;4.90;76.10
61374;DHT22;47242;48.158;-1.586;2022-12-16T11:42:03;5.00;76.20
61374;DHT22;47242;48.158;-1.586;2022-12-16T11:44:54;5.10;76.10
61374;DHT22;47242;48.158;-1.586;2022-12-16T11:47:44;5.20;76.10
61374;DHT22;47242;48.158;-1.586;2022-12-16T11:50:31;5.20;75.50
61374;DHT22;47242;48.158;-1.586;2022-12-16T11:53:53;5.30;75.80
61374;DHT22;47242;48.158;-1.586;2022-12-16T11:56:42;5.30;75.60
61374;DHT22;47242;48.158;-1.586;2022-12-16T11:59:32;5.40;75.30
61374;DHT22;47242;48.158;-1.586;2022-12-16T12:02:35;5.50;75.10
61374;DHT22;47242;48.158;-1.586;2022-12-16T12:05:33;5.50;74.60
61374;DHT22;47242;48.158;-1.586;2022-12-16T12:14:58;5.70;74.00
61374;DHT22;47242;48.158;-1.586;2022-12-16T12:18:10;5.70;73.40
61374;DHT22;47242;48.158;-1.586;2022-12-16T12:21:01;5.70;73.50
61374;DHT22;47242;48.158;-1.586;2022-12-16T12:27:03;5.70;73.10
61374;DHT22;47242;48.158;-1.586;2022-12-16T12:35:55;5.90;72.90
61374;DHT22;47242;48.158;-1.586;2022-12-16T12:41:57;6.10;70.80
61374;DHT22;47242;48.158;-1.586;2022-12-16T12:44:59;6.20;70.40
61374;DHT22;47242;48.158;-1.586;2022-12-16T12:47:55;6.10;70.20
61374;DHT22;47242;48.158;-1.586;2022-12-16T12:50:56;6.20;69.60
61374;DHT22;47242;48.158;-1.586;2022-12-16T12:54:14;6.20;69.50
61374;DHT22;47242;48.158;-1.586;2022-12-16T12:57:03;6.20;69.50
61374;DHT22;47242;48.158;-1.586;2022-12-16T13:00:03;6.30;69.00
61374;DHT22;47242;48.158;-1.586;2022-12-16T13:05:46;6.30;68.40
61374;DHT22;47242;48.158;-1.586;2022-12-16T13:08:32;6.40;68.00
61374;DHT22;47242;48.158;-1.586;2022-12-16T13:11:16;6.40;67.80
61374;DHT22;47242;48.158;-1.586;2022-12-16T13:14:01;6.50;67.30
61374;DHT22;47242;48.158;-1.586;2022-12-16T13:22:31;6.50;67.60
61374;DHT22;47242;48.158;-1.586;2022-12-16T13:25:36;6.50;66.90
61374;DHT22;47242;48.158;-1.586;2022-12-16T13:31:10;6.60;66.70
61374;DHT22;47242;48.158;-1.586;2022-12-16T13:37:22;6.70;66.20
61374;DHT22;47242;48.158;-1.586;2022-12-16T13:42:55;6.70;66.30
61374;DHT22;47242;48.158;-1.586;2022-12-16T13:46:12;6.70;66.60
61374;DHT22;47242;48.158;-1.586;2022-12-16T13:48:48;6.70;66.10
61374;DHT22;47242;48.158;-1.586;2022-12-16T13:54:33;6.70;65.80
61374;DHT22;47242;48.158;-1.586;2022-12-16T13:57:22;6.70;65.60
61374;DHT22;47242;48.158;-1.586;2022-12-16T14:00:20;6.70;65.70
61374;DHT22;47242;48.158;-1.586;2022-12-16T14:03:14;6.80;65.40
61374;DHT22;47242;48.158;-1.586;2022-12-16T14:06:04;6.80;64.90
61374;DHT22;47242;48.158;-1.586;2022-12-16T14:08:49;6.80;64.70
61374;DHT22;47242;48.158;-1.586;2022-12-16T14:14:44;6.70;64.90
61374;DHT22;47242;48.158;-1.586;2022-12-16T14:17:38;6.70;64.90
61374;DHT22;47242;48.158;-1.586;2022-12-16T14:20:49;6.70;64.90
61374;DHT22;47242;48.158;-1.586;2022-12-16T14:23:50;6.70;64.70
61374;DHT22;47242;48.158;-1.586;2022-12-16T14:26:35;6.70;64.70
61374;DHT22;47242;48.158;-1.586;2022-12-16T14:29:27;6.70;64.90
61374;DHT22;47242;48.158;-1.586;2022-12-16T14:32:30;6.70;64.70
61374;DHT22;47242;48.158;-1.586;2022-12-16T14:35:20;6.70;64.80
61374;DHT22;47242;48.158;-1.586;2022-12-16T14:38:25;6.70;64.50
61374;DHT22;47242;48.158;-1.586;2022-12-16T14:41:14;6.70;64.70
61374;DHT22;47242;48.158;-1.586;2022-12-16T14:44:02;6.70;64.80
61374;DHT22;47242;48.158;-1.586;2022-12-16T14:46:50;6.60;64.60
61374;DHT22;47242;48.158;-1.586;2022-12-16T14:49:34;6.60;64.70
61374;DHT22;47242;48.158;-1.586;2022-12-16T14:52:21;6.60;64.80
61374;DHT22;47242;48.158;-1.586;2022-12-16T14:58:18;6.60;62.60
61374;DHT22;47242;48.158;-1.586;2022-12-16T15:01:20;6.60;62.40
61374;DHT22;47242;48.158;-1.586;2022-12-16T15:04:16;6.60;62.60
61374;DHT22;47242;48.158;-1.586;2022-12-16T15:07:02;6.50;62.60
61374;DHT22;47242;48.158;-1.586;2022-12-16T15:09:51;6.50;62.40
61374;DHT22;47242;48.158;-1.586;2022-12-16T15:12:40;6.50;62.20
61374;DHT22;47242;48.158;-1.586;2022-12-16T15:18:23;6.50;62.20
61374;DHT22;47242;48.158;-1.586;2022-12-16T15:21:08;6.40;62.30
61374;DHT22;47242;48.158;-1.586;2022-12-16T15:23:53;6.40;62.60
61374;DHT22;47242;48.158;-1.586;2022-12-16T15:26:37;6.40;62.70
61374;DHT22;47242;48.158;-1.586;2022-12-16T15:29:27;6.30;62.90
61374;DHT22;47242;48.158;-1.586;2022-12-16T15:32:27;6.30;62.90
61374;DHT22;47242;48.158;-1.586;2022-12-16T15:35:50;6.30;63.10
61374;DHT22;47242;48.158;-1.586;2022-12-16T15:38:34;6.20;63.40
61374;DHT22;47242;48.158;-1.586;2022-12-16T15:44:18;6.20;64.20
61374;DHT22;47242;48.158;-1.586;2022-12-16T15:47:04;6.20;64.90
61374;DHT22;47242;48.158;-1.586;2022-12-16T15:49:49;6.00;65.70
61374;DHT22;47242;48.158;-1.586;2022-12-16T15:52:42;6.00;66.30
61374;DHT22;47242;48.158;-1.586;2022-12-16T15:55:40;5.90;67.00
61374;DHT22;47242;48.158;-1.586;2022-12-16T15:58:32;5.80;67.30
61374;DHT22;47242;48.158;-1.586;2022-12-16T16:01:25;5.70;67.90
61374;DHT22;47242;48.158;-1.586;2022-12-16T16:04:20;5.70;68.20
61374;DHT22;47242;48.158;-1.586;2022-12-16T16:07:17;5.60;68.70
61374;DHT22;47242;48.158;-1.586;2022-12-16T16:10:23;5.50;69.10
61374;DHT22;47242;48.158;-1.586;2022-12-16T16:13:08;5.50;69.50
61374;DHT22;47242;48.158;-1.586;2022-12-16T16:15:53;5.40;69.80
61374;DHT22;47242;48.158;-1.586;2022-12-16T16:18:39;5.30;70.10
61374;DHT22;47242;48.158;-1.586;2022-12-16T16:21:24;5.30;70.20
61374;DHT22;47242;48.158;-1.586;2022-12-16T16:24:08;5.30;70.30
61374;DHT22;47242;48.158;-1.586;2022-12-16T16:26:53;5.20;70.60
61374;DHT22;47242;48.158;-1.586;2022-12-16T16:29:40;5.20;70.70
61374;DHT22;47242;48.158;-1.586;2022-12-16T16:32:25;5.20;70.80
61374;DHT22;47242;48.158;-1.586;2022-12-16T16:35:09;5.20;71.10
61374;DHT22;47242;48.158;-1.586;2022-12-16T16:37:53;5.10;71.30
61374;DHT22;47242;48.158;-1.586;2022-12-16T16:40:39;5.00;71.50
61374;DHT22;47242;48.158;-1.586;2022-12-16T16:43:25;5.00;71.60
61374;DHT22;47242;48.158;-1.586;2022-12-16T16:49:19;4.90;72.20
61374;DHT22;47242;48.158;-1.586;2022-12-16T16:52:06;4.90;72.20
61374;DHT22;47242;48.158;-1.586;2022-12-16T16:54:52;4.80;72.40
61374;DHT22;47242;48.158;-1.586;2022-12-16T16:57:37;4.80;72.50
61374;DHT22;47242;48.158;-1.586;2022-12-16T17:00:21;4.80;72.70
61374;DHT22;47242;48.158;-1.586;2022-12-16T17:03:05;4.70;72.80
61374;DHT22;47242;48.158;-1.586;2022-12-16T17:05:49;4.70;72.70
61374;DHT22;47242;48.158;-1.586;2022-12-16T17:08:34;4.70;73.00
61374;DHT22;47242;48.158;-1.586;2022-12-16T17:11:19;4.60;73.10
61374;DHT22;47242;48.158;-1.586;2022-12-16T17:14:04;4.60;73.20
61374;DHT22;47242;48.158;-1.586;2022-12-16T17:16:48;4.60;73.30
61374;DHT22;47242;48.158;-1.586;2022-12-16T17:19:32;4.50;73.40
61374;DHT22;47242;48.158;-1.586;2022-12-16T17:22:17;4.50;73.60
61374;DHT22;47242;48.158;-1.586;2022-12-16T17:25:01;4.40;73.70
61374;DHT22;47242;48.158;-1.586;2022-12-16T17:27:45;4.40;73.70
61374;DHT22;47242;48.158;-1.586;2022-12-16T17:30:29;4.30;73.90
61374;DHT22;47242;48.158;-1.586;2022-12-16T17:33:15;4.30;74.00
61374;DHT22;47242;48.158;-1.586;2022-12-16T17:35:59;4.30;74.10
61374;DHT22;47242;48.158;-1.586;2022-12-16T17:38:54;4.30;74.10
61374;DHT22;47242;48.158;-1.586;2022-12-16T17:41:38;4.30;74.10
61374;DHT22;47242;48.158;-1.586;2022-12-16T17:44:22;4.30;74.00
61374;DHT22;47242;48.158;-1.586;2022-12-16T17:47:07;4.20;74.10
61374;DHT22;47242;48.158;-1.586;2022-12-16T17:49:52;4.20;74.20
61374;DHT22;47242;48.158;-1.586;2022-12-16T17:52:36;4.20;74.40
61374;DHT22;47242;48.158;-1.586;2022-12-16T17:55:21;4.10;74.40
61374;DHT22;47242;48.158;-1.586;2022-12-16T17:58:05;4.20;74.50
61374;DHT22;47242;48.158;-1.586;2022-12-16T18:00:49;4.10;74.50
61374;DHT22;47242;48.158;-1.586;2022-12-16T18:03:33;4.00;74.60
61374;DHT22;47242;48.158;-1.586;2022-12-16T18:06:17;4.00;74.60
61374;DHT22;47242;48.158;-1.586;2022-12-16T18:09:01;4.00;74.50
61374;DHT22;47242;48.158;-1.586;2022-12-16T18:11:45;3.90;74.40
61374;DHT22;47242;48.158;-1.586;2022-12-16T18:14:30;3.90;74.60
61374;DHT22;47242;48.158;-1.586;2022-12-16T18:17:14;3.80;74.60
61374;DHT22;47242;48.158;-1.586;2022-12-16T18:19:58;3.80;74.80
61374;DHT22;47242;48.158;-1.586;2022-12-16T18:22:42;3.70;74.90
61374;DHT22;47242;48.158;-1.586;2022-12-16T18:25:26;3.70;75.10
61374;DHT22;47242;48.158;-1.586;2022-12-16T18:28:10;3.70;75.30
61374;DHT22;47242;48.158;-1.586;2022-12-16T18:30:54;3.60;75.60
61374;DHT22;47242;48.158;-1.586;2022-12-16T18:33:39;3.60;75.60
61374;DHT22;47242;48.158;-1.586;2022-12-16T18:36:23;3.70;75.60
61374;DHT22;47242;48.158;-1.586;2022-12-16T18:39:07;3.60;75.70
61374;DHT22;47242;48.158;-1.586;2022-12-16T18:41:52;3.60;75.80
61374;DHT22;47242;48.158;-1.586;2022-12-16T18:44:36;3.60;75.90
61374;DHT22;47242;48.158;-1.586;2022-12-16T18:47:20;3.60;76.00
61374;DHT22;47242;48.158;-1.586;2022-12-16T18:50:05;3.60;76.00
61374;DHT22;47242;48.158;-1.586;2022-12-16T18:52:50;3.50;76.00
61374;DHT22;47242;48.158;-1.586;2022-12-16T18:55:34;3.50;76.00
61374;DHT22;47242;48.158;-1.586;2022-12-16T18:58:18;3.50;76.00
61374;DHT22;47242;48.158;-1.586;2022-12-16T19:01:05;3.50;76.00
61374;DHT22;47242;48.158;-1.586;2022-12-16T19:03:53;3.50;76.00
61374;DHT22;47242;48.158;-1.586;2022-12-16T19:06:37;3.50;75.90
61374;DHT22;47242;48.158;-1.586;2022-12-16T19:09:24;3.50;75.90
61374;DHT22;47242;48.158;-1.586;2022-12-16T19:12:08;3.50;75.90
61374;DHT22;47242;48.158;-1.586;2022-12-16T19:14:55;3.40;75.70
61374;DHT22;47242;48.158;-1.586;2022-12-16T19:17:39;3.40;76.00
61374;DHT22;47242;48.158;-1.586;2022-12-16T19:20:41;3.30;75.90
61374;DHT22;47242;48.158;-1.586;2022-12-16T19:23:25;3.30;76.10
61374;DHT22;47242;48.158;-1.586;2022-12-16T19:26:14;3.30;76.10
61374;DHT22;47242;48.158;-1.586;2022-12-16T19:28:58;3.20;76.20
61374;DHT22;47242;48.158;-1.586;2022-12-16T19:31:42;3.20;76.00
61374;DHT22;47242;48.158;-1.586;2022-12-16T19:34:27;3.20;76.30
61374;DHT22;47242;48.158;-1.586;2022-12-16T19:37:11;3.20;76.00
61374;DHT22;47242;48.158;-1.586;2022-12-16T19:39:55;3.10;76.00
61374;DHT22;47242;48.158;-1.586;2022-12-16T19:42:39;3.10;76.20
61374;DHT22;47242;48.158;-1.586;2022-12-16T19:45:23;3.10;76.30
61374;DHT22;47242;48.158;-1.586;2022-12-16T19:48:07;3.10;76.00
61374;DHT22;47242;48.158;-1.586;2022-12-16T19:50:56;3.10;76.00
61374;DHT22;47242;48.158;-1.586;2022-12-16T19:53:40;3.10;75.70
61374;DHT22;47242;48.158;-1.586;2022-12-16T19:56:25;3.00;75.70
61374;DHT22;47242;48.158;-1.586;2022-12-16T19:59:09;3.00;75.80
61374;DHT22;47242;48.158;-1.586;2022-12-16T20:01:53;3.00;75.50
61374;DHT22;47242;48.158;-1.586;2022-12-16T20:04:37;2.90;75.70
61374;DHT22;47242;48.158;-1.586;2022-12-16T20:07:21;2.90;75.80
61374;DHT22;47242;48.158;-1.586;2022-12-16T20:10:07;2.90;75.70
61374;DHT22;47242;48.158;-1.586;2022-12-16T20:12:51;2.80;76.00
61374;DHT22;47242;48.158;-1.586;2022-12-16T20:15:35;2.80;76.00
61374;DHT22;47242;48.158;-1.586;2022-12-16T20:18:19;2.80;75.90
61374;DHT22;47242;48.158;-1.586;2022-12-16T20:21:04;2.80;75.90
61374;DHT22;47242;48.158;-1.586;2022-12-16T20:23:48;2.80;75.90
61374;DHT22;47242;48.158;-1.586;2022-12-16T20:26:33;2.80;75.90
61374;DHT22;47242;48.158;-1.586;2022-12-16T20:29:18;2.80;76.00
61374;DHT22;47242;48.158;-1.586;2022-12-16T20:32:02;2.80;76.00
61374;DHT22;47242;48.158;-1.586;2022-12-16T20:34:46;2.80;76.20
61374;DHT22;47242;48.158;-1.586;2022-12-16T20:37:30;2.80;76.30
61374;DHT22;47242;48.158;-1.586;2022-12-16T20:40:17;2.80;76.20
61374;DHT22;47242;48.158;-1.586;2022-12-16T20:43:01;2.90;76.10
61374;DHT22;47242;48.158;-1.586;2022-12-16T20:45:45;2.90;76.10
61374;DHT22;47242;48.158;-1.586;2022-12-16T20:48:29;2.90;76.00
61374;DHT22;47242;48.158;-1.586;2022-12-16T20:51:14;2.90;76.10
61374;DHT22;47242;48.158;-1.586;2022-12-16T20:53:58;2.90;75.90
61374;DHT22;47242;48.158;-1.586;2022-12-16T20:56:42;2.80;75.90
61374;DHT22;47242;48.158;-1.586;2022-12-16T20:59:26;2.90;75.80
61374;DHT22;47242;48.158;-1.586;2022-12-16T21:02:11;2.80;75.70
61374;DHT22;47242;48.158;-1.586;2022-12-16T21:04:56;2.80;75.80
61374;DHT22;47242;48.158;-1.586;2022-12-16T21:07:40;2.80;75.80
61374;DHT22;47242;48.158;-1.586;2022-12-16T21:10:24;2.70;75.40
61374;DHT22;47242;48.158;-1.586;2022-12-16T21:13:11;2.70;75.60
61374;DHT22;47242;48.158;-1.586;2022-12-16T21:15:56;2.70;75.60
61374;DHT22;47242;48.158;-1.586;2022-12-16T21:18:41;2.70;75.80
61374;DHT22;47242;48.158;-1.586;2022-12-16T21:21:25;2.70;75.70
61374;DHT22;47242;48.158;-1.586;2022-12-16T21:24:09;2.70;75.60
61374;DHT22;47242;48.158;-1.586;2022-12-16T21:26:53;2.60;75.70
61374;DHT22;47242;48.158;-1.586;2022-12-16T21:29:37;2.60;75.70
61374;DHT22;47242;48.158;-1.586;2022-12-16T21:32:22;2.50;75.60
61374;DHT22;47242;48.158;-1.586;2022-12-16T21:35:06;2.50;75.60
61374;DHT22;47242;48.158;-1.586;2022-12-16T21:37:51;2.50;75.60
61374;DHT22;47242;48.158;-1.586;2022-12-16T21:40:35;2.50;75.50
61374;DHT22;47242;48.158;-1.586;2022-12-16T21:43:22;2.40;75.70
61374;DHT22;47242;48.158;-1.586;2022-12-16T21:46:07;2.50;75.60
61374;DHT22;47242;48.158;-1.586;2022-12-16T21:48:53;2.50;75.70
61374;DHT22;47242;48.158;-1.586;2022-12-16T21:51:38;2.40;75.50
61374;DHT22;47242;48.158;-1.586;2022-12-16T21:54:22;2.40;75.70
61374;DHT22;47242;48.158;-1.586;2022-12-16T21:57:06;2.50;75.80
61374;DHT22;47242;48.158;-1.586;2022-12-16T21:59:50;2.50;75.90
61374;DHT22;47242;48.158;-1.586;2022-12-16T22:02:34;2.50;75.70
61374;DHT22;47242;48.158;-1.586;2022-12-16T22:05:18;2.40;75.80
61374;DHT22;47242;48.158;-1.586;2022-12-16T22:08:07;2.40;75.60
61374;DHT22;47242;48.158;-1.586;2022-12-16T22:10:52;2.40;75.80
61374;DHT22;47242;48.158;-1.586;2022-12-16T22:13:36;2.40;75.90
61374;DHT22;47242;48.158;-1.586;2022-12-16T22:16:20;2.50;75.90
61374;DHT22;47242;48.158;-1.586;2022-12-16T22:19:04;2.50;75.90
61374;DHT22;47242;48.158;-1.586;2022-12-16T22:21:48;2.50;75.80
61374;DHT22;47242;48.158;-1.586;2022-12-16T22:24:33;2.50;75.90
61374;DHT22;47242;48.158;-1.586;2022-12-16T22:27:17;2.40;75.90
